Snow, OK (74567)

4:28 AM CDT on April 27, 2015 (GMT -0500)
Stamper Municipal | | Change Station
CLOSE
Current Station
Airport
Location: Hugo,
Elevation: 571 ft
Nearby Weather Stations

Elev 571 ft 34.03 °N, 95.54 °W | Updated 13 minutes ago

Mostly Cloudy
Mostly Cloudy
61 °F
Feels Like 61 °F
N
16
Wind Variable Wind from East
Gusts 24 mph

Today
High -- | Low -- °F
--% Chance of Precip.
Yesterday
High -- | Low -- °F
Precip. -- in
6:36 AM 8:02 PM
Waxing Gibbous, 63% visible
Pressure 29.74 in
Visibility -9999.0 miles
Clouds Mostly Cloudy 600 ft
Mostly Cloudy 1200 ft
Dew Point 58 °F
Humidity 91%
Rainfall 0.00 in
Snow Depth Not available.
UV 0 out of 12
Pollen 10.10 out of 12
Air Quality Not available.
Flu Activity Local Activity
METAR KHHW 270915Z AUTO 08014G21KT BKN006 BKN012 16/15 A2974 RMK AO2 LTG DSNT N T01600145 PWINO

More Conditions Fewer Conditions

Pressure 29.74 in
Visibility -9999.0 miles
Clouds Mostly Cloudy 600 ft
Mostly Cloudy 1200 ft
Dew Point 58 °F
Humidity 91%
Rainfall 0.00 in
Snow Depth Not available.
UV 0 out of 12
Pollen 10.10 out of 12
Air Quality Not available.
Flu Activity Local Activity
METAR KHHW 270915Z AUTO 08014G21KT BKN006 BKN012 16/15 A2974 RMK AO2 LTG DSNT N T01600145 PWINO

More Conditions Fewer Conditions

Nowcast | as of 3:58 am CDT on April 27, 2015

At 3:50 PM...National Weather Service radars detected showers with embedded isolated thunderstorms spreading across portions of eastern Oklahoma and also northwest Arkansas. The leading edge of the precipitation along with the isolated thunder was along and near a line from Copan to Bentonville to Huntsville Arkansas. The rear edge of the precipitation was along and near a line from Ponca City to Tahlequah to Talihina. These showers and storms were moving toward the north and northeast at around 15 miles per hour. Through 5:00 am...showers with isolated embedded thunderstorms will continue to move across parts of northeast and far eastern Oklahoma as well as northwest Arkansas. Hourly rainfall amounts from a couple hundredths of an inch to near a quarter of an inch will be possible...with locally higher amounts within any thunderstorm activity.

×

10-Day Weather Forecast

Almanac

Astronomy

Apr. 27, 2015 Rise Set
Actual Time
Civil Twilight
Nautical Twilight
Astronomical Twilight
Moon
Length of Visible Light
Length of Day
Tomorrow will be .
, % of the Moon is Illuminated

Today's Extremes

State Highs State Lows

Community

WunderPhotos

Upload Photos

1,817,278 photos uploaded!

WunderBlogs® & News

Nearby

Air Quality

  Air Quality AQ Index Pollutant
Not available.

Snow Depth

Station Depth Elevation

Earthquake Activity

City Distance Mag. Time & Date
Minimum magnitude displayed is 2.5.

Coastal Water Temperatures

Place Temperature

Stations

Nearby Weather Stations

Station Location Temp. Windchill Dew Point Humidity Wind Precip. Elev Updated Type